createdAt,value
2019-06-07T00:01:08.454Z,101220.76
2019-06-07T00:05:13.301Z,101219.08
2019-06-07T00:09:18.655Z,101217.58
2019-06-07T00:13:20.395Z,101218.78
2019-06-07T00:17:22.678Z,101215.25
2019-06-07T00:22:11.994Z,101216.08
2019-06-07T00:25:29.111Z,101211.34
2019-06-07T00:29:31.695Z,101221.67
2019-06-07T00:33:33.927Z,101212.22
2019-06-07T00:37:36.201Z,101216.63
2019-06-07T00:41:39.022Z,101215.72
2019-06-07T00:45:41.516Z,101216.05
2019-06-07T00:49:43.677Z,101212.48
2019-06-07T00:53:46.243Z,101209.08
2019-06-07T00:57:48.447Z,101212.78
2019-06-07T01:01:51.133Z,101219.20
2019-06-07T01:05:53.554Z,101215.95
2019-06-07T01:09:55.894Z,101230.95
2019-06-07T01:13:58.293Z,101222.00
2019-06-07T01:18:33.782Z,101226.87
2019-06-07T01:22:04.833Z,101228.51
2019-06-07T01:26:07.282Z,101231.00
2019-06-07T01:30:11.114Z,101229.96
2019-06-07T01:34:13.375Z,101224.03
2019-06-07T01:38:17.216Z,101226.02
2019-06-07T01:42:20.379Z,101223.31
2019-06-07T01:46:26.663Z,101209.47
2019-06-07T01:50:27.325Z,101203.53
2019-06-07T01:58:33.543Z,101207.73
2019-06-07T02:02:35.804Z,101191.54
2019-06-07T02:06:38.128Z,101198.64
2019-06-07T02:10:40.277Z,101201.23
2019-06-07T02:14:42.634Z,101205.60
2019-06-07T02:19:01.036Z,101204.61
2019-06-07T02:22:48.933Z,101212.56
2019-06-07T02:26:51.241Z,101212.59
2019-06-07T02:31:00.058Z,101210.92
2019-06-07T02:34:58.294Z,101212.16
2019-06-07T02:39:00.524Z,101210.99
2019-06-07T02:43:04.177Z,101202.89
2019-06-07T02:47:06.388Z,101199.87
2019-06-07T02:51:08.534Z,101190.80
2019-06-07T02:55:11.207Z,101188.63
2019-06-07T02:59:13.786Z,101186.13
2019-06-07T03:03:16.651Z,101186.98
2019-06-07T03:07:19.533Z,101180.31
2019-06-07T03:11:24.265Z,101180.39
2019-06-07T03:15:35.525Z,101183.78
2019-06-07T03:19:39.476Z,101181.24
2019-06-07T03:23:44.114Z,101178.20
2019-06-07T03:27:49.966Z,101180.42
2019-06-07T03:31:50.366Z,101178.88
2019-06-07T03:35:52.591Z,101180.94
2019-06-07T03:39:54.735Z,101172.08
2019-06-07T03:43:57.364Z,101174.77
2019-06-07T03:47:59.724Z,101173.17
2019-06-07T03:52:01.844Z,101172.92
2019-06-07T03:56:04.289Z,101178.41
2019-06-07T04:00:07.476Z,101178.73
2019-06-07T04:04:09.566Z,101178.48
2019-06-07T04:08:11.770Z,101171.14
2019-06-07T04:12:13.899Z,101167.32
2019-06-07T04:16:16.140Z,101174.06
2019-06-07T04:20:18.356Z,101178.41
2019-06-07T04:24:20.615Z,101185.96
2019-06-07T04:28:22.646Z,101179.30
2019-06-07T04:32:26.382Z,101188.61
2019-06-07T04:36:47.553Z,101191.36
2019-06-07T04:40:36.875Z,101183.25
2019-06-07T04:44:42.626Z,101190.02
2019-06-07T04:48:46.561Z,101184.09
2019-06-07T04:52:48.832Z,101185.98
2019-06-07T04:56:52.162Z,101179.27
2019-06-07T05:01:02.592Z,101189.13
2019-06-07T05:04:58.342Z,101177.85
2019-06-07T05:09:00.336Z,101178.58
2019-06-07T05:13:02.567Z,101175.63
2019-06-07T05:17:04.806Z,101176.33
2019-06-07T05:21:08.798Z,101176.89
2019-06-07T05:25:11.031Z,101174.27
2019-06-07T05:29:13.297Z,101179.33
2019-06-07T05:33:16.453Z,101180.04
2019-06-07T05:37:18.894Z,101177.48
2019-06-07T05:41:21.003Z,101177.48
2019-06-07T05:45:32.455Z,101173.13
2019-06-07T05:49:37.909Z,101184.59
2019-06-07T05:53:40.445Z,101181.45
2019-06-07T05:57:48.560Z,101188.12
2019-06-07T06:01:59.002Z,101184.70
2019-06-07T06:05:55.258Z,101189.16
2019-06-07T06:09:54.332Z,101192.00
2019-06-07T06:14:06.606Z,101187.75
2019-06-07T06:18:00.406Z,101187.30
2019-06-07T06:22:02.438Z,101180.52
2019-06-07T06:26:04.726Z,101175.84
2019-06-07T06:30:08.372Z,101183.09
2019-06-07T06:34:10.572Z,101182.70
2019-06-07T06:38:12.705Z,101183.12
2019-06-07T06:42:14.977Z,101183.41
2019-06-07T06:46:37.483Z,101185.44
2019-06-07T06:50:21.327Z,101193.91
2019-06-07T06:54:40.325Z,101192.16
2019-06-07T06:58:27.567Z,101186.92
2019-06-07T07:02:29.930Z,101187.03
2019-06-07T07:06:32.290Z,101190.95
2019-06-07T07:10:43.109Z,101190.11
2019-06-07T07:14:47.893Z,101187.39
2019-06-07T07:18:52.904Z,101194.42
2019-06-07T07:22:57.178Z,101188.66
2019-06-07T07:26:58.691Z,101183.47
2019-06-07T07:31:00.977Z,101186.27
2019-06-07T07:35:03.168Z,101187.25
2019-06-07T07:39:06.884Z,101180.31
2019-06-07T07:43:09.161Z,101187.62
2019-06-07T07:47:11.543Z,101183.84
2019-06-07T07:51:13.851Z,101186.88
2019-06-07T07:55:16.266Z,101189.58
2019-06-07T07:59:18.497Z,101189.14
2019-06-07T08:03:21.024Z,101185.86
2019-06-07T08:07:23.385Z,101187.28
2019-06-07T08:11:26.548Z,101191.03
2019-06-07T08:15:28.902Z,101187.78
2019-06-07T08:19:31.252Z,101196.11
2019-06-07T08:23:33.424Z,101196.61
2019-06-07T08:27:35.728Z,101195.76
2019-06-07T08:31:37.987Z,101192.09
2019-06-07T08:36:05.586Z,101196.67
2019-06-07T08:39:44.409Z,101204.44
2019-06-07T08:43:46.628Z,101203.41
2019-06-07T08:47:56.589Z,101210.37
2019-06-07T08:51:57.715Z,101216.63
2019-06-07T08:56:02.300Z,101211.19
2019-06-07T09:00:07.167Z,101215.49
2019-06-07T09:04:10.510Z,101216.55
2019-06-07T09:08:28.530Z,101215.48
2019-06-07T09:12:13.095Z,101224.44
2019-06-07T09:16:15.318Z,101221.11
2019-06-07T09:20:35.660Z,101224.69
2019-06-07T09:24:23.149Z,101231.45
2019-06-07T09:28:25.419Z,101240.87
2019-06-07T09:32:27.624Z,101228.50
2019-06-07T09:36:29.837Z,101236.13
2019-06-07T09:40:32.293Z,101236.64
2019-06-07T09:44:34.411Z,101245.27
2019-06-07T09:52:57.791Z,101245.09
2019-06-07T09:56:46.326Z,101243.82
2019-06-07T10:00:48.820Z,101245.60
2019-06-07T10:04:51.176Z,101241.67
2019-06-07T10:12:57.308Z,101243.05
2019-06-07T10:17:00.820Z,101247.72
2019-06-07T10:21:03.780Z,101249.77
2019-06-07T10:25:08.324Z,101253.16
2019-06-07T10:29:10.828Z,101251.13
2019-06-07T10:33:13.064Z,101249.74
2019-06-07T10:37:15.876Z,101244.84
2019-06-07T10:41:18.115Z,101253.58
2019-06-07T10:45:20.502Z,101238.25
2019-06-07T10:49:22.724Z,101247.89
2019-06-07T10:53:24.828Z,101248.52
2019-06-07T10:57:27.185Z,101245.27
2019-06-07T11:01:29.375Z,101233.95
2019-06-07T11:05:31.493Z,101240.05
2019-06-07T11:09:34.083Z,101244.73
2019-06-07T11:13:36.368Z,101236.91
2019-06-07T11:17:38.588Z,101233.30
2019-06-07T11:21:40.634Z,101234.52
2019-06-07T11:25:42.971Z,101230.02
2019-06-07T11:29:45.085Z,101226.84
2019-06-07T11:33:47.364Z,101218.82
2019-06-07T11:37:49.648Z,101215.55
2019-06-07T11:41:51.762Z,101221.05
2019-06-07T11:45:54.032Z,101221.14
2019-06-07T11:49:56.337Z,101217.96
2019-06-07T11:53:58.504Z,101222.93
2019-06-07T11:58:00.809Z,101216.06
2019-06-07T12:02:03.143Z,101215.92
2019-06-07T12:06:05.387Z,101214.23
2019-06-07T12:10:08.544Z,101207.91
2019-06-07T12:14:12.900Z,101205.50
2019-06-07T12:18:15.220Z,101204.88
2019-06-07T12:22:17.960Z,101195.76
2019-06-07T12:26:20.688Z,101195.06
2019-06-07T12:30:27.775Z,101197.33
2019-06-07T12:34:27.023Z,101193.84
2019-06-07T12:38:30.191Z,101187.99
2019-06-07T12:42:32.616Z,101188.58
2019-06-07T12:46:36.021Z,101178.94
2019-06-07T12:50:43.126Z,101186.77
2019-06-07T12:54:42.341Z,101190.62
2019-06-07T12:58:44.532Z,101181.11
2019-06-07T13:02:46.720Z,101182.39
2019-06-07T13:06:48.978Z,101177.28
2019-06-07T13:10:52.224Z,101185.17
2019-06-07T13:14:54.561Z,101193.06
2019-06-07T13:18:56.966Z,101198.44
2019-06-07T13:22:59.225Z,101189.62
2019-06-07T13:27:01.451Z,101192.78
2019-06-07T13:31:03.602Z,101186.18
2019-06-07T13:35:06.151Z,101181.63
2019-06-07T13:39:08.954Z,101179.45
2019-06-07T13:43:11.282Z,101178.13
2019-06-07T13:47:13.428Z,101179.93
2019-06-07T13:51:15.708Z,101173.70
2019-06-07T13:55:19.774Z,101171.67
2019-06-07T13:59:22.361Z,101175.11
2019-06-07T14:03:29.305Z,101172.13
2019-06-07T14:07:29.958Z,101169.83
2019-06-07T14:11:49.386Z,101168.70
2019-06-07T14:15:37.409Z,101169.11
2019-06-07T14:19:39.567Z,101155.28
2019-06-07T14:23:48.656Z,101155.55
2019-06-07T14:27:45.641Z,101161.20
2019-06-07T14:31:47.866Z,101168.09
2019-06-07T14:35:50.015Z,101178.63
2019-06-07T14:39:52.244Z,101175.01
2019-06-07T14:43:54.377Z,101176.32
2019-06-07T14:47:56.374Z,101175.59
2019-06-07T14:51:58.390Z,101177.83
2019-06-07T14:56:00.567Z,101174.91
2019-06-07T15:00:10.383Z,101173.80
2019-06-07T15:04:06.443Z,101167.12
2019-06-07T15:08:08.593Z,101167.67
2019-06-07T15:12:24.193Z,101166.33
2019-06-07T15:16:14.416Z,101161.59
2019-06-07T15:20:16.646Z,101162.50
2019-06-07T15:24:18.571Z,101155.78
2019-06-07T15:28:20.636Z,101154.06
2019-06-07T15:32:23.575Z,101151.91
2019-06-07T15:36:26.023Z,101150.83
2019-06-07T15:40:29.028Z,101148.42
2019-06-07T15:44:31.224Z,101143.82
2019-06-07T15:48:33.988Z,101142.05
2019-06-07T15:52:38.090Z,101137.87
2019-06-07T15:56:41.326Z,101141.77
2019-06-07T16:00:43.422Z,101139.61
2019-06-07T16:04:45.329Z,101136.91
2019-06-07T16:08:47.286Z,101140.89
2019-06-07T16:12:59.495Z,101135.80
2019-06-07T16:16:52.734Z,101135.66
2019-06-07T16:20:54.840Z,101140.32
2019-06-07T16:24:56.933Z,101139.19
2019-06-07T16:28:59.140Z,101130.77
2019-06-07T16:33:01.121Z,101136.46
2019-06-07T16:37:03.149Z,101134.11
2019-06-07T16:41:05.640Z,101138.26
2019-06-07T16:45:08.950Z,101144.80
2019-06-07T16:49:11.032Z,101147.88
2019-06-07T16:53:13.081Z,101140.31
2019-06-07T16:57:15.125Z,101143.41
2019-06-07T17:01:16.960Z,101140.28
2019-06-07T17:05:19.248Z,101148.41
2019-06-07T17:09:21.321Z,101149.22
2019-06-07T17:13:32.913Z,101155.79
2019-06-07T17:17:27.371Z,101152.38
2019-06-07T17:21:32.015Z,101153.31
2019-06-07T17:25:33.845Z,101157.75
2019-06-07T17:29:36.226Z,101155.05
2019-06-07T17:33:38.166Z,101155.29
2019-06-07T17:37:42.264Z,101165.05
2019-06-07T17:41:56.180Z,101160.42
2019-06-07T17:45:47.623Z,101165.58
2019-06-07T17:49:50.044Z,101166.77
2019-06-07T17:53:52.129Z,101194.70
2019-06-07T17:57:53.947Z,101179.76
2019-06-07T18:02:13.608Z,101179.76
2019-06-07T18:06:01.383Z,101176.63
2019-06-07T18:10:06.554Z,101177.23
2019-06-07T18:14:11.124Z,101174.05
2019-06-07T18:18:14.945Z,101162.25
2019-06-07T18:22:17.329Z,101168.48
2019-06-07T18:26:19.555Z,101168.48
2019-06-07T18:30:21.902Z,101167.44
2019-06-07T18:34:24.327Z,101173.48
2019-06-07T18:38:26.692Z,101175.16
2019-06-07T18:42:29.115Z,101172.17
2019-06-07T18:46:31.538Z,101174.67
2019-06-07T18:50:33.884Z,101169.45
2019-06-07T18:54:36.103Z,101169.37
2019-06-07T18:58:38.668Z,101176.33
2019-06-07T19:02:44.253Z,101172.66
2019-06-07T19:06:46.564Z,101170.69
2019-06-07T19:10:50.707Z,101156.23
2019-06-07T19:14:53.331Z,101154.32
2019-06-07T19:18:55.884Z,101151.52
2019-06-07T19:23:00.553Z,101144.75
2019-06-07T19:27:02.861Z,101153.33
2019-06-07T19:31:06.312Z,101157.56
2019-06-07T19:35:09.707Z,101162.92
2019-06-07T19:39:11.991Z,101168.94
2019-06-07T19:43:14.237Z,101168.03
2019-06-07T19:47:16.648Z,101148.63
2019-06-07T19:51:20.410Z,101165.24
2019-06-07T19:55:22.964Z,101166.00
2019-06-07T19:59:25.491Z,101167.84
2019-06-07T20:03:28.738Z,101170.12
2019-06-07T20:07:31.035Z,101176.92
2019-06-07T20:11:33.348Z,101183.97
2019-06-07T20:15:35.655Z,101170.33
2019-06-07T20:19:37.985Z,101165.79
2019-06-07T20:23:40.362Z,101160.28
2019-06-07T20:27:42.672Z,101163.52
2019-06-07T20:31:44.807Z,101167.75
2019-06-07T20:35:47.107Z,101167.77
2019-06-07T20:39:49.276Z,101172.06
2019-06-07T20:43:51.658Z,101173.66
2019-06-07T20:47:53.815Z,101166.55
2019-06-07T20:51:56.142Z,101157.29
2019-06-07T20:55:58.493Z,101159.94
2019-06-07T21:00:02.584Z,101161.53
2019-06-07T21:04:07.326Z,101157.70
2019-06-07T21:08:12.663Z,101153.77
2019-06-07T21:12:13.430Z,101154.66
2019-06-07T21:16:15.920Z,101155.05
2019-06-07T21:20:18.172Z,101148.83
2019-06-07T21:24:20.439Z,101149.02
2019-06-07T21:28:22.650Z,101144.67
2019-06-07T21:32:24.976Z,101140.64
2019-06-07T21:36:27.191Z,101157.77
2019-06-07T21:40:29.463Z,101159.59
2019-06-07T21:44:31.698Z,101162.22
2019-06-07T21:48:34.118Z,101154.72
2019-06-07T21:52:36.270Z,101150.19
2019-06-07T21:56:38.499Z,101154.50
2019-06-07T22:01:09.972Z,101158.00
2019-06-07T22:05:14.801Z,101155.98
2019-06-07T22:09:17.150Z,101157.83
2019-06-07T22:13:19.516Z,101150.66
2019-06-07T22:17:21.697Z,101152.63
2019-06-07T22:21:25.149Z,101157.43
2019-06-07T22:25:28.806Z,101157.50
2019-06-07T22:29:31.166Z,101148.75
2019-06-07T22:33:33.501Z,101147.86
2019-06-07T22:37:35.713Z,101142.83
2019-06-07T22:41:38.039Z,101153.72
2019-06-07T22:45:40.897Z,101157.95
2019-06-07T22:49:43.245Z,101154.80
2019-06-07T22:53:48.327Z,101155.50
2019-06-07T22:57:58.366Z,101155.41
2019-06-07T23:02:00.698Z,101151.05
2019-06-07T23:06:02.915Z,101149.03
2019-06-07T23:10:05.850Z,101152.59
2019-06-07T23:14:09.179Z,101159.72
2019-06-07T23:18:11.478Z,101156.70
2019-06-07T23:22:13.886Z,101155.69
2019-06-07T23:26:16.412Z,101148.92
2019-06-07T23:30:21.694Z,101140.80
2019-06-07T23:34:24.242Z,101139.45
2019-06-07T23:38:26.816Z,101134.06
2019-06-07T23:42:29.325Z,101142.52
2019-06-07T23:46:31.429Z,101134.10
2019-06-07T23:50:33.648Z,101141.87
2019-06-07T23:54:36.008Z,101145.41
2019-06-07T23:58:38.357Z,101138.84
